Time;durP1;ratioP1;P1;durP2;ratioP2;P2;SDS_P1;SDS_P2;PMS_P1;PMS_P2;Temp;Humidity;BMP_temperature;BMP_pressure;BME280_temperature;BME280_humidity;BME280_pressure;Samples;Min_cycle;Max_cycle;Signal;HPM_P1;HPM_P2
2022/07/16 00:02:45;;;;;;;3.70;3.30;;;17.80;1.00;;;;;;5053398;28;20191;-54
2022/07/16 00:05:11;;;;;;;5.57;2.70;;;17.60;1.00;;;;;;5053196;28;21438;-54
2022/07/16 00:07:37;;;;;;;5.73;3.33;;;17.70;1.00;;;;;;5054567;28;20537;-55
2022/07/16 00:10:03;;;;;;;2.80;2.23;;;17.70;1.00;;;;;;5056560;28;20458;-56
2022/07/16 00:12:30;;;;;;;2.60;2.33;;;;;;;;;;5053460;28;20192;-54
2022/07/16 00:14:55;;;;;;;4.47;2.30;;;17.70;1.00;;;;;;5052807;28;20914;-55
2022/07/16 00:17:21;;;;;;;4.93;3.40;;;17.80;1.00;;;;;;5049466;28;20439;-54
2022/07/16 00:19:47;;;;;;;3.13;2.30;;;17.70;1.00;;;;;;5049429;28;20180;-55
2022/07/16 00:22:12;;;;;;;2.93;1.60;;;17.70;1.00;;;;;;5051375;28;20188;-53
2022/07/16 00:24:38;;;;;;;3.23;2.93;;;17.70;1.00;;;;;;5051362;28;20322;-53
2022/07/16 00:27:05;;;;;;;5.33;2.70;;;17.70;1.00;;;;;;5058694;28;20545;-54
2022/07/16 00:29:31;;;;;;;5.17;3.87;;;17.80;1.00;;;;;;5053034;28;20435;-54
2022/07/16 00:31:56;;;;;;;4.13;3.67;;;17.70;1.00;;;;;;5047484;28;20480;-54
2022/07/16 00:34:22;;;;;;;3.23;2.80;;;17.70;1.00;;;;;;5046400;28;20658;-54
2022/07/16 00:36:49;;;;;;;5.57;4.20;;;17.60;1.00;;;;;;5049705;28;20235;-55
2022/07/16 00:39:16;;;;;;;5.90;4.10;;;17.50;1.00;;;;;;5050325;28;20478;-55
2022/07/16 00:41:43;;;;;;;5.50;3.57;;;17.50;1.00;;;;;;5054823;28;20495;-53
2022/07/16 00:44:12;;;;;;;5.07;3.60;;;17.60;1.00;;;;;;5056698;28;20437;-53
2022/07/16 00:46:39;;;;;;;5.20;3.37;;;17.70;1.00;;;;;;5053122;28;20839;-53
2022/07/16 00:49:05;;;;;;;3.60;3.10;;;17.70;1.00;;;;;;5054905;28;20504;-55
2022/07/16 00:51:33;;;;;;;4.20;3.17;;;17.70;1.00;;;;;;5055053;28;20552;-55
2022/07/16 00:53:59;;;;;;;6.33;3.20;;;17.60;1.00;;;;;;5049611;28;20478;-55
2022/07/16 00:56:25;;;;;;;4.03;3.10;;;17.50;1.00;;;;;;5056931;28;20458;-55
2022/07/16 00:58:52;;;;;;;3.17;2.87;;;17.50;1.00;;;;;;5053510;28;20480;-54
2022/07/16 01:01:18;;;;;;;4.27;3.37;;;17.50;1.00;;;;;;5054061;28;20508;-55
2022/07/16 01:03:45;;;;;;;4.20;3.00;;;17.50;1.00;;;;;;5049391;28;20469;-55
2022/07/16 01:06:11;;;;;;;3.70;2.93;;;17.40;1.00;;;;;;5048921;28;20494;-54
2022/07/16 01:08:41;;;;;;;3.13;2.53;;;17.50;1.00;;;;;;5050325;28;20801;-53
2022/07/16 01:11:09;;;;;;;4.10;2.97;;;17.40;1.00;;;;;;5053134;28;20456;-54
2022/07/16 01:13:37;;;;;;;3.43;3.00;;;17.40;1.00;;;;;;5054721;28;20973;-54
2022/07/16 01:16:06;;;;;;;3.53;2.67;;;17.40;1.00;;;;;;5060979;28;20855;-54
2022/07/16 01:18:32;;;;;;;3.70;2.90;;;17.40;1.00;;;;;;5052563;28;20453;-53
2022/07/16 01:20:58;;;;;;;5.33;3.00;;;17.40;1.00;;;;;;5046718;28;20964;-55
2022/07/16 01:23:25;;;;;;;7.13;2.90;;;17.40;1.00;;;;;;5048102;28;20180;-54
2022/07/16 01:25:51;;;;;;;4.97;3.30;;;17.40;1.00;;;;;;5049970;28;20473;-54
2022/07/16 01:28:18;;;;;;;5.30;3.60;;;17.40;1.00;;;;;;5056785;28;20445;-54
2022/07/16 01:30:44;;;;;;;3.80;2.97;;;17.30;1.00;;;;;;5067530;28;20473;-54
2022/07/16 01:33:25;;;;;;;4.93;2.83;;;17.30;1.00;;;;;;5051915;28;20474;-54
2022/07/16 01:35:54;;;;;;;3.80;2.80;;;17.30;1.00;;;;;;5050648;28;20461;-53
2022/07/16 01:38:19;;;;;;;5.10;2.87;;;19.20;1.00;;;;;;5059508;28;20458;-54
2022/07/16 01:40:45;;;;;;;4.13;2.77;;;17.10;1.00;;;;;;5054566;28;20453;-55
2022/07/16 01:43:20;;;;;;;4.40;3.20;;;17.00;1.00;;;;;;5064321;28;20328;-54
2022/07/16 01:45:46;;;;;;;6.20;3.27;;;17.10;1.00;;;;;;5059025;28;20269;-55
2022/07/16 01:48:13;;;;;;;3.83;2.50;;;17.10;1.00;;;;;;5055749;28;20454;-54
2022/07/16 01:50:42;;;;;;;3.67;3.17;;;17.10;1.00;;;;;;5051343;28;20449;-54
2022/07/16 01:53:09;;;;;;;3.73;2.40;;;17.10;1.00;;;;;;5055649;28;20956;-53
2022/07/16 01:55:34;;;;;;;4.33;2.80;;;17.10;1.00;;;;;;5051520;28;20472;-55
2022/07/16 01:58:05;;;;;;;3.60;2.83;;;17.20;1.00;;;;;;5049646;28;20529;-54
2022/07/16 02:00:32;;;;;;;4.30;3.10;;;17.10;1.00;;;;;;5045111;28;20454;-54
2022/07/16 02:02:58;;;;;;;3.90;2.77;;;17.10;1.00;;;;;;5050856;28;20443;-53
2022/07/16 02:05:24;;;;;;;3.00;2.70;;;17.10;1.00;;;;;;5049803;28;20454;-52
2022/07/16 02:07:49;;;;;;;4.00;2.70;;;17.10;1.00;;;;;;5058234;28;20451;-55
2022/07/16 02:10:15;;;;;;;3.03;2.80;;;17.20;1.00;;;;;;5051455;28;20227;-54
2022/07/16 02:12:41;;;;;;;5.60;3.10;;;17.20;1.00;;;;;;5049951;28;20558;-55
2022/07/16 02:15:07;;;;;;;4.37;3.00;;;17.10;1.00;;;;;;5048857;28;20462;-55
2022/07/16 02:17:34;;;;;;;4.00;2.87;;;17.10;1.00;;;;;;5053014;28;20179;-55
2022/07/16 02:20:00;;;;;;;8.30;3.23;;;17.10;1.00;;;;;;5057408;28;20503;-55
2022/07/16 02:22:26;;;;;;;3.43;2.70;;;17.00;1.00;;;;;;5049736;28;20447;-54
2022/07/16 02:24:52;;;;;;;5.17;2.63;;;17.00;1.00;;;;;;5050416;28;20457;-53
2022/07/16 02:27:17;;;;;;;3.73;2.73;;;17.00;1.00;;;;;;5046030;28;20192;-54
2022/07/16 02:29:43;;;;;;;3.13;2.60;;;17.10;1.00;;;;;;5048731;28;20218;-54
2022/07/16 02:32:08;;;;;;;3.63;2.33;;;17.10;1.00;;;;;;5051047;28;20785;-54
2022/07/16 02:34:34;;;;;;;5.20;2.40;;;17.00;1.00;;;;;;5055225;28;20220;-56
2022/07/16 02:37:00;;;;;;;5.60;2.70;;;17.00;1.00;;;;;;5050595;28;20247;-54
2022/07/16 02:39:26;;;;;;;3.50;2.10;;;17.00;1.00;;;;;;5048374;28;20183;-54
2022/07/16 02:41:51;;;;;;;3.80;2.30;;;16.90;1.00;;;;;;5043136;28;20239;-53
2022/07/16 02:44:18;;;;;;;3.00;1.80;;;16.90;1.00;;;;;;5046518;28;20180;-55
2022/07/16 02:46:43;;;;;;;2.07;1.87;;;16.90;1.00;;;;;;5047253;28;20192;-54
2022/07/16 02:49:09;;;;;;;3.17;1.70;;;17.00;1.00;;;;;;5056956;28;20499;-56
2022/07/16 02:51:35;;;;;;;1.93;1.70;;;17.00;1.00;;;;;;5055056;28;20200;-54
2022/07/16 02:54:00;;;;;;;7.40;2.23;;;17.00;1.00;;;;;;5050419;28;20199;-53
2022/07/16 02:56:26;;;;;;;2.60;1.80;;;17.10;1.00;;;;;;5059718;28;20184;-54
2022/07/16 02:58:51;;;;;;;2.37;2.17;;;17.00;1.00;;;;;;5054415;28;20269;-54
2022/07/16 03:01:17;;;;;;;6.57;2.40;;;17.00;1.00;;;;;;5049866;28;20188;-55
2022/07/16 03:03:43;;;;;;;3.50;2.33;;;;;;;;;;5048834;28;20185;-54
2022/07/16 03:06:09;;;;;;;2.70;2.40;;;17.00;1.00;;;;;;5047225;28;20187;-53
2022/07/16 03:08:34;;;;;;;11.30;3.00;;;17.10;1.00;;;;;;5048154;28;20782;-54
2022/07/16 03:11:00;;;;;;;4.40;2.30;;;16.80;1.00;;;;;;5051588;28;20511;-53
2022/07/16 03:13:25;;;;;;;4.53;2.27;;;16.80;1.00;;;;;;5051517;28;20188;-54
2022/07/16 03:15:52;;;;;;;3.07;2.40;;;16.70;1.00;;;;;;5051965;28;20309;-54
2022/07/16 03:18:17;;;;;;;5.13;2.23;;;16.70;1.00;;;;;;5051070;28;20214;-52
2022/07/16 03:20:43;;;;;;;2.93;2.23;;;16.70;1.00;;;;;;5047921;28;20518;-53
2022/07/16 03:23:08;;;;;;;3.13;2.50;;;16.70;1.00;;;;;;5050333;28;20183;-54
2022/07/16 03:25:34;;;;;;;2.63;2.20;;;16.80;1.00;;;;;;5059133;28;20198;-55
2022/07/16 03:28:00;;;;;;;2.20;1.90;;;16.80;1.00;;;;;;5055656;28;20180;-54
2022/07/16 03:30:25;;;;;;;5.43;2.43;;;16.90;1.00;;;;;;5052603;28;20691;-55
2022/07/16 03:32:51;;;;;;;4.90;2.40;;;16.90;1.00;;;;;;5050702;28;20191;-54
2022/07/16 03:35:17;;;;;;;3.90;2.03;;;16.80;1.00;;;;;;5050590;28;20208;-54
2022/07/16 03:40:27;;;;;;;3.10;2.00;;;16.80;1.00;;;;;;5051758;28;20282;-55
2022/07/16 03:42:53;;;;;;;5.57;2.10;;;16.90;1.00;;;;;;5055414;28;20442;-54
2022/07/16 03:45:19;;;;;;;3.13;2.80;;;16.90;1.00;;;;;;5054800;28;20499;-53
2022/07/16 03:47:44;;;;;;;2.40;2.20;;;16.80;1.00;;;;;;5059138;28;20450;-52
2022/07/16 03:50:10;;;;;;;3.60;2.23;;;16.90;1.00;;;;;;5051227;28;20188;-54
2022/07/16 03:52:36;;;;;;;2.23;2.03;;;16.80;1.00;;;;;;5057191;28;20199;-53
2022/07/16 03:55:01;;;;;;;3.20;2.03;;;16.80;1.00;;;;;;5054223;28;20215;-54
2022/07/16 03:57:27;;;;;;;2.47;2.27;;;16.80;1.00;;;;;;5050791;28;20565;-54
2022/07/16 03:59:52;;;;;;;2.60;1.90;;;16.80;1.00;;;;;;5056068;28;20183;-54
2022/07/16 04:02:18;;;;;;;2.23;1.53;;;16.80;1.00;;;;;;5050626;28;20525;-54
2022/07/16 04:04:44;;;;;;;2.80;1.80;;;16.80;1.00;;;;;;5049225;28;20295;-55
2022/07/16 04:07:09;;;;;;;5.33;2.90;;;16.80;1.00;;;;;;5067250;28;20188;-54
2022/07/16 04:09:35;;;;;;;3.20;2.23;;;16.80;1.00;;;;;;5051347;28;20443;-56
2022/07/16 04:12:01;;;;;;;4.00;2.30;;;16.80;1.00;;;;;;5058385;28;20661;-53
2022/07/16 04:14:27;;;;;;;3.90;1.87;;;16.80;1.00;;;;;;5050602;28;20668;-54
2022/07/16 04:16:52;;;;;;;3.70;1.97;;;16.80;1.00;;;;;;5065639;28;20237;-54
2022/07/16 04:19:18;;;;;;;2.50;1.73;;;16.80;1.00;;;;;;5051207;28;20224;-55
2022/07/16 04:21:44;;;;;;;3.47;1.83;;;16.80;1.00;;;;;;5054151;28;20188;-53
2022/07/16 04:24:10;;;;;;;2.57;1.70;;;17.00;1.00;;;;;;5055812;28;20247;-54
2022/07/16 04:26:35;;;;;;;1.80;1.60;;;17.00;1.00;;;;;;5050112;28;20482;-55
2022/07/16 04:29:01;;;;;;;3.07;1.87;;;17.10;1.00;;;;;;5055054;28;20701;-54
2022/07/16 04:31:26;;;;;;;2.40;1.60;;;17.20;1.00;;;;;;5053018;28;20216;-53
2022/07/16 04:33:52;;;;;;;1.80;1.70;;;17.20;1.00;;;;;;5061210;28;20268;-56
2022/07/16 04:36:18;;;;;;;2.67;1.73;;;17.30;1.00;;;;;;5053142;28;20278;-55
2022/07/16 04:38:44;;;;;;;1.50;1.40;;;17.40;1.00;;;;;;5046761;28;20188;-55
2022/07/16 04:41:09;;;;;;;2.10;1.53;;;17.50;1.00;;;;;;5053207;28;20192;-54
2022/07/16 04:43:35;;;;;;;2.20;1.87;;;17.60;1.00;;;;;;5047298;28;20560;-53
2022/07/16 04:46:01;;;;;;;3.10;1.63;;;17.60;1.00;;;;;;5055303;28;20203;-54
2022/07/16 04:48:26;;;;;;;3.10;1.53;;;17.70;1.00;;;;;;5048491;28;20195;-53
2022/07/16 04:50:52;;;;;;;2.10;1.47;;;17.70;1.00;;;;;;5057076;28;20719;-55
2022/07/16 04:53:18;;;;;;;3.33;1.57;;;17.80;1.00;;;;;;5048334;28;20196;-54
2022/07/16 04:55:43;;;;;;;1.50;1.20;;;18.00;1.00;;;;;;5058776;28;20203;-53
2022/07/16 04:58:09;;;;;;;3.10;1.77;;;18.10;1.00;;;;;;5054903;28;20194;-54
2022/07/16 05:00:35;;;;;;;4.73;1.30;;;18.40;1.00;;;;;;5062839;28;20222;-55
2022/07/16 05:03:01;;;;;;;2.20;1.57;;;18.70;1.00;;;;;;5058027;28;21051;-54
2022/07/16 05:05:30;;;;;;;2.47;1.37;;;19.00;1.00;;;;;;5047376;28;20322;-56
2022/07/16 05:07:55;;;;;;;2.10;1.40;;;19.30;1.00;;;;;;5060733;28;20188;-55
2022/07/16 05:10:21;;;;;;;1.90;1.10;;;19.60;1.00;;;;;;5053337;28;20891;-56
2022/07/16 05:12:47;;;;;;;1.50;1.13;;;19.70;1.00;;;;;;5050771;28;20196;-53
2022/07/16 05:15:13;;;;;;;1.93;1.07;;;19.80;1.00;;;;;;5053749;28;20215;-55
2022/07/16 05:17:38;;;;;;;1.40;1.20;;;19.90;1.00;;;;;;5058874;28;20446;-54
2022/07/16 05:20:05;;;;;;;2.23;1.30;;;20.00;1.00;;;;;;5053608;28;20457;-54
2022/07/16 05:22:31;;;;;;;1.73;1.50;;;20.10;1.00;;;;;;5048132;28;20191;-54
2022/07/16 05:24:57;;;;;;;1.40;0.93;;;20.20;1.00;;;;;;5045868;28;20450;-54
2022/07/16 05:27:22;;;;;;;3.40;1.20;;;20.30;1.00;;;;;;5052229;28;20511;-55
2022/07/16 05:29:48;;;;;;;5.53;2.07;;;20.20;1.00;;;;;;5052406;28;20203;-53
2022/07/16 05:32:13;;;;;;;2.07;1.40;;;20.30;1.00;;;;;;5054184;28;20202;-54
2022/07/16 05:34:39;;;;;;;2.80;1.17;;;20.40;1.00;;;;;;5059712;28;20254;-56
2022/07/16 05:37:05;;;;;;;2.50;1.10;;;20.50;1.00;;;;;;5047634;28;20255;-53
2022/07/16 05:39:30;;;;;;;2.90;1.50;;;20.70;1.00;;;;;;5047238;28;20634;-54
2022/07/16 05:41:56;;;;;;;5.00;1.53;;;20.80;1.00;;;;;;5048838;28;20227;-54
2022/07/16 05:44:21;;;;;;;3.07;1.53;;;20.60;1.00;;;;;;5048502;28;20649;-54
2022/07/16 05:46:47;;;;;;;5.97;1.80;;;20.50;1.00;;;;;;5049456;28;20290;-55
2022/07/16 05:49:13;;;;;;;3.77;1.50;;;20.20;1.00;;;;;;5049484;28;20268;-53
2022/07/16 05:51:38;;;;;;;3.23;1.47;;;20.40;1.00;;;;;;5049549;28;20195;-56
2022/07/16 05:54:04;;;;;;;3.40;1.13;;;20.60;1.00;;;;;;5049134;28;20661;-56
2022/07/16 05:56:29;;;;;;;3.97;1.50;;;20.60;1.00;;;;;;5046594;28;20263;-54
2022/07/16 05:59:01;;;;;;;2.10;1.50;;;20.60;1.00;;;;;;5057841;28;20188;-57
2022/07/16 06:01:30;;;;;;;3.63;1.30;;;20.70;1.00;;;;;;5048037;28;20241;-55
2022/07/16 06:03:56;;;;;;;2.97;1.80;;;20.80;1.00;;;;;;5049519;28;20439;-54
2022/07/16 06:06:22;;;;;;;2.27;1.40;;;21.10;1.00;;;;;;5053782;28;20959;-54
2022/07/16 06:08:47;;;;;;;3.03;1.43;;;21.50;1.00;;;;;;5051839;28;20430;-54
2022/07/16 06:11:13;;;;;;;3.63;1.20;;;21.70;1.00;;;;;;5053728;28;20266;-54
2022/07/16 06:13:39;;;;;;;2.00;1.40;;;21.90;1.00;;;;;;5061251;28;20207;-54
2022/07/16 06:16:07;;;;;;;3.60;1.90;;;21.90;1.00;;;;;;5057698;28;20278;-54
2022/07/16 06:18:33;;;;;;;4.40;1.27;;;22.00;1.00;;;;;;5065086;28;20196;-53
2022/07/16 06:20:58;;;;;;;1.80;1.33;;;21.90;1.00;;;;;;5051933;28;20529;-54
2022/07/16 06:23:24;;;;;;;4.13;1.80;;;21.90;1.00;;;;;;5058860;28;21001;-54
2022/07/16 06:25:50;;;;;;;3.83;1.23;;;21.80;1.00;;;;;;5052021;28;20236;-54
2022/07/16 06:28:16;;;;;;;3.93;1.27;;;21.60;1.00;;;;;;5050269;28;20242;-54
2022/07/16 06:30:42;;;;;;;2.23;1.23;;;21.40;1.00;;;;;;5058279;28;20303;-55
2022/07/16 06:33:07;;;;;;;2.07;1.30;;;21.40;1.00;;;;;;5057558;28;21032;-55
2022/07/16 06:35:33;;;;;;;2.87;1.80;;;21.50;1.00;;;;;;5054097;28;20243;-53
2022/07/16 06:37:59;;;;;;;3.87;1.93;;;21.50;1.00;;;;;;5048815;28;20267;-54
2022/07/16 06:40:24;;;;;;;4.33;1.30;;;21.10;1.00;;;;;;5048503;28;20175;-54
2022/07/16 06:42:50;;;;;;;1.50;1.00;;;20.90;1.00;;;;;;5049399;28;20183;-55
2022/07/16 06:45:15;;;;;;;3.93;2.00;;;20.90;1.00;;;;;;5047306;28;20276;-53
2022/07/16 06:47:41;;;;;;;2.37;1.20;;;21.00;1.00;;;;;;5052845;28;20196;-52
2022/07/16 06:50:07;;;;;;;3.60;1.10;;;21.00;1.00;;;;;;5046591;28;20192;-55
2022/07/16 06:52:33;;;;;;;1.57;1.03;;;20.80;1.00;;;;;;5049679;28;20210;-54
2022/07/16 06:54:58;;;;;;;3.00;1.40;;;20.70;1.00;;;;;;5051498;28;20470;-55
2022/07/16 06:57:24;;;;;;;3.13;1.40;;;20.70;1.00;;;;;;5048092;28;20199;-53
2022/07/16 06:59:49;;;;;;;3.30;1.43;;;20.70;1.00;;;;;;5046114;28;20302;-53
2022/07/16 07:02:15;;;;;;;5.13;2.00;;;20.40;1.00;;;;;;5052043;28;20273;-53
2022/07/16 07:04:41;;;;;;;5.23;1.37;;;20.00;1.00;;;;;;5052840;28;20187;-54
2022/07/16 07:07:07;;;;;;;4.40;1.77;;;19.80;1.00;;;;;;5056695;28;20512;-55
2022/07/16 07:09:32;;;;;;;3.20;1.27;;;19.80;1.00;;;;;;5054226;28;20208;-54
2022/07/16 07:11:58;;;;;;;1.83;1.50;;;19.70;1.00;;;;;;5052520;28;20195;-57
2022/07/16 07:14:24;;;;;;;2.30;1.73;;;19.70;1.00;;;;;;5057579;28;20560;-58
2022/07/16 07:16:50;;;;;;;4.30;1.67;;;19.60;1.00;;;;;;5054995;28;20184;-57
2022/07/16 07:19:15;;;;;;;3.17;1.37;;;19.60;1.00;;;;;;5052987;28;20257;-57
2022/07/16 07:21:41;;;;;;;2.87;1.83;;;19.60;1.00;;;;;;5051913;28;20955;-57
2022/07/16 07:24:06;;;;;;;1.97;1.60;;;19.70;1.00;;;;;;5052513;28;20242;-58
2022/07/16 07:26:33;;;;;;;5.37;1.70;;;19.80;1.00;;;;;;5051515;28;20769;-57
2022/07/16 07:28:58;;;;;;;2.93;1.90;;;19.80;1.00;;;;;;5052017;28;20224;-55
2022/07/16 07:31:24;;;;;;;1.90;1.70;;;20.10;1.00;;;;;;5064336;28;20591;-58
2022/07/16 07:33:50;;;;;;;2.23;1.50;;;20.20;1.00;;;;;;5064501;28;20192;-57
2022/07/16 07:36:15;;;;;;;1.90;1.70;;;20.20;1.00;;;;;;5052349;28;20733;-58
2022/07/16 07:38:41;;;;;;;4.07;1.53;;;20.00;1.00;;;;;;5050885;28;20188;-58
2022/07/16 07:41:07;;;;;;;1.77;1.30;;;20.00;1.00;;;;;;5052685;28;20238;-59
2022/07/16 07:43:32;;;;;;;2.10;1.40;;;20.10;1.00;;;;;;5050381;28;20188;-57
2022/07/16 07:45:58;;;;;;;2.57;1.40;;;;;;;;;;5047806;28;20649;-58
2022/07/16 07:48:24;;;;;;;5.47;1.90;;;20.70;1.00;;;;;;5056555;28;20175;-57
2022/07/16 07:50:49;;;;;;;2.20;1.30;;;20.80;1.00;;;;;;5058663;28;20824;-58
2022/07/16 07:53:15;;;;;;;1.73;1.53;;;20.90;1.00;;;;;;5053469;28;20211;-57
2022/07/16 07:55:41;;;;;;;3.00;1.30;;;21.30;1.00;;;;;;5052393;28;20254;-57
2022/07/16 07:58:08;;;;;;;1.80;1.40;;;21.30;1.00;;;;;;5056594;28;20180;-57
2022/07/16 08:00:34;;;;;;;1.60;1.20;;;;;;;;;;5049910;28;20446;-57
2022/07/16 08:02:59;;;;;;;5.90;1.40;;;21.30;1.00;;;;;;5052181;28;20514;-57
2022/07/16 08:05:27;;;;;;;3.20;1.60;;;21.10;1.00;;;;;;5057276;28;21049;-58
2022/07/16 08:07:52;;;;;;;2.20;1.70;;;21.00;1.00;;;;;;5051616;28;20759;-58
2022/07/16 08:10:18;;;;;;;3.80;1.30;;;21.00;1.00;;;;;;5048299;28;20462;-58
2022/07/16 08:12:44;;;;;;;5.07;1.60;;;21.00;1.00;;;;;;5051027;28;20229;-59
2022/07/16 08:15:10;;;;;;;1.93;1.70;;;20.80;1.00;;;;;;5058451;28;20357;-57
2022/07/16 08:17:36;;;;;;;3.23;1.60;;;20.70;1.00;;;;;;5052152;28;20658;-58
2022/07/16 08:20:04;;;;;;;4.60;2.40;;;20.70;1.00;;;;;;5050522;28;21087;-58
2022/07/16 08:22:30;;;;;;;3.00;1.57;;;20.80;1.00;;;;;;5057519;28;20438;-58
2022/07/16 08:27:39;;;;;;;6.50;1.90;;;21.10;1.00;;;;;;5050023;28;20660;-58
2022/07/16 08:30:05;;;;;;;1.90;1.70;;;21.30;1.00;;;;;;5056412;28;20466;-58
2022/07/16 08:32:31;;;;;;;4.47;2.00;;;21.60;1.00;;;;;;5047833;28;20188;-58
2022/07/16 08:34:57;;;;;;;3.70;1.43;;;21.40;1.00;;;;;;5050141;28;20882;-57
2022/07/16 08:37:35;;;;;;;3.37;2.00;;;21.40;1.00;;;;;;5051935;28;20638;-58
2022/07/16 08:40:06;;;;;;;4.07;1.87;;;21.40;1.00;;;;;;5050241;28;20188;-58
2022/07/16 08:42:33;;;;;;;3.83;1.97;;;21.40;1.00;;;;;;5063371;28;20463;-58
2022/07/16 08:45:01;;;;;;;4.27;1.80;;;21.10;1.00;;;;;;5065739;28;20923;-57
2022/07/16 08:47:30;;;;;;;3.40;2.00;;;20.80;1.00;;;;;;5060234;28;20862;-58
2022/07/16 08:49:59;;;;;;;7.50;2.10;;;20.70;1.00;;;;;;5050603;28;20481;-57
2022/07/16 08:52:28;;;;;;;4.40;2.10;;;20.70;1.00;;;;;;5050667;28;20431;-58
2022/07/16 08:54:55;;;;;;;4.80;1.93;;;20.90;1.00;;;;;;5050335;28;20519;-57
2022/07/16 08:57:21;;;;;;;3.77;2.17;;;20.80;1.00;;;;;;5059877;28;20456;-56
2022/07/16 08:59:47;;;;;;;3.97;2.00;;;20.30;1.00;;;;;;5050068;28;20446;-58
2022/07/16 09:02:13;;;;;;;6.87;2.13;;;20.20;1.00;;;;;;5050878;28;20588;-57
2022/07/16 09:04:40;;;;;;;4.60;2.30;;;20.10;1.00;;;;;;5050735;28;21011;-57
2022/07/16 09:07:05;;;;;;;2.83;1.90;;;20.00;1.00;;;;;;5050050;28;20218;-58
2022/07/16 09:09:31;;;;;;;4.83;2.23;;;19.70;1.00;;;;;;5049415;28;20979;-57
2022/07/16 09:11:56;;;;;;;3.60;1.97;;;19.80;1.00;;;;;;5050246;28;20184;-57
2022/07/16 09:14:22;;;;;;;4.83;2.23;;;20.10;1.00;;;;;;5050184;28;20204;-57
2022/07/16 09:16:51;;;;;;;4.07;1.97;;;20.40;1.00;;;;;;5049533;28;20184;-57
2022/07/16 09:19:21;;;;;;;4.57;1.93;;;20.30;1.00;;;;;;5049106;28;20195;-57
2022/07/16 09:22:07;;;;;;;2.63;1.97;;;20.50;1.00;;;;;;5047903;28;20454;-57
2022/07/16 09:24:46;;;;;;;6.17;1.90;;;20.80;1.00;;;;;;5049157;28;20446;-57
2022/07/16 09:27:24;;;;;;;5.87;2.60;;;21.80;1.00;;;;;;5050437;28;20438;-56
2022/07/16 09:29:56;;;;;;;3.90;2.00;;;21.90;1.00;;;;;;5049678;28;20491;-57
2022/07/16 09:32:32;;;;;;;2.90;1.97;;;22.30;1.00;;;;;;5050017;28;20963;-57
2022/07/16 09:35:11;;;;;;;2.00;1.60;;;22.10;1.00;;;;;;5050328;28;20489;-57
2022/07/16 09:37:54;;;;;;;3.10;2.17;;;22.00;1.00;;;;;;5048994;28;20461;-57
2022/07/16 09:40:35;;;;;;;2.70;1.83;;;21.80;1.00;;;;;;5046612;28;20469;-57
2022/07/16 09:43:02;;;;;;;4.93;2.13;;;21.80;1.00;;;;;;5049899;28;20443;-56
2022/07/16 09:45:28;;;;;;;4.13;2.00;;;21.80;1.00;;;;;;5049162;28;20438;-58
2022/07/16 09:47:56;;;;;;;2.40;1.63;;;21.50;1.00;;;;;;5048576;28;20862;-57
2022/07/16 09:50:22;;;;;;;2.73;2.10;;;21.30;1.00;;;;;;5049645;28;20212;-58
2022/07/16 09:52:48;;;;;;;2.17;1.97;;;20.90;1.00;;;;;;5049921;28;20512;-58
2022/07/16 09:55:13;;;;;;;3.63;1.87;;;20.70;1.00;;;;;;5049195;28;20215;-58
2022/07/16 09:57:42;;;;;;;2.67;2.30;;;20.60;1.00;;;;;;5049542;28;20259;-57
2022/07/16 10:00:08;;;;;;;2.60;1.53;;;20.30;1.00;;;;;;5047837;28;20250;-57
2022/07/16 10:02:34;;;;;;;2.30;1.60;;;20.10;1.00;;;;;;5049302;28;20500;-57
2022/07/16 10:05:00;;;;;;;3.43;2.00;;;20.10;1.00;;;;;;5046865;28;20493;-58
2022/07/16 10:07:26;;;;;;;5.97;2.63;;;19.90;1.00;;;;;;5047501;28;20865;-57
2022/07/16 10:09:52;;;;;;;10.63;3.00;;;19.90;1.00;;;;;;5049281;28;20478;-59
2022/07/16 10:12:20;;;;;;;3.40;2.00;;;19.90;1.00;;;;;;5054124;28;20673;-57
2022/07/16 10:14:52;;;;;;;4.93;2.10;;;19.70;1.00;;;;;;5069742;28;20294;-58
2022/07/16 10:17:21;;;;;;;3.10;1.80;;;19.70;1.00;;;;;;5055884;28;20845;-57
2022/07/16 10:20:00;;;;;;;2.53;2.33;;;19.70;1.00;;;;;;5048775;28;20488;-58
2022/07/16 10:22:52;;;;;;;5.13;2.67;;;19.60;1.00;;;;;;5048689;28;20722;-58
2022/07/16 10:25:19;;;;;;;4.17;2.37;;;19.50;1.00;;;;;;5047861;28;20512;-58
2022/07/16 10:27:45;;;;;;;3.00;2.57;;;19.20;1.00;;;;;;5050087;28;20464;-59
2022/07/16 10:30:15;;;;;;;5.17;2.53;;;19.10;1.00;;;;;;5049312;28;20461;-57
2022/07/16 10:33:17;;;;;;;5.73;3.00;;;18.80;1.00;;;;;;5049197;28;20442;-58
2022/07/16 10:35:49;;;;;;;3.00;2.70;;;18.70;1.00;;;;;;5024705;28;20474;-59
2022/07/16 10:38:22;;;;;;;3.90;2.50;;;18.90;1.00;;;;;;5053014;28;20450;-59
2022/07/16 10:41:21;;;;;;;2.97;2.30;;;19.20;1.00;;;;;;5052766;28;20433;-58
2022/07/16 10:44:09;;;;;;;3.80;2.40;;;19.20;1.00;;;;;;5074107;28;20973;-59
2022/07/16 10:46:49;;;;;;;3.97;2.80;;;19.60;1.00;;;;;;5073743;28;20438;-58
2022/07/16 10:49:15;;;;;;;4.20;2.63;;;20.10;1.00;;;;;;5073852;28;21053;-59
2022/07/16 10:51:53;;;;;;;2.60;2.40;;;20.40;1.00;;;;;;5072174;28;20536;-59
2022/07/16 10:54:18;;;;;;;2.93;2.30;;;20.50;1.00;;;;;;5073470;28;20213;-57
2022/07/16 10:56:51;;;;;;;3.03;2.63;;;20.60;1.00;;;;;;5058250;28;20525;-59
2022/07/16 10:59:23;;;;;;;5.00;3.27;;;20.60;1.00;;;;;;5053833;28;20649;-58
2022/07/16 11:01:53;;;;;;;3.20;2.90;;;20.90;1.00;;;;;;5052122;28;20797;-58
2022/07/16 11:04:38;;;;;;;3.33;2.70;;;21.20;1.00;;;;;;5053583;28;20496;-58
2022/07/16 11:07:09;;;;;;;6.40;3.30;;;21.00;1.00;;;;;;5053414;28;20440;-58
2022/07/16 11:09:38;;;;;;;3.30;3.00;;;20.90;1.00;;;;;;5052456;28;20444;-58
2022/07/16 11:12:25;;;;;;;2.67;2.20;;;21.20;1.00;;;;;;5053577;28;20438;-59
2022/07/16 11:14:52;;;;;;;3.30;2.90;;;21.70;1.00;;;;;;5052515;28;20851;-59
2022/07/16 11:17:22;;;;;;;4.83;2.93;;;21.90;1.00;;;;;;5053234;28;20924;-58
2022/07/16 11:19:51;;;;;;;2.93;2.40;;;21.90;1.00;;;;;;5072555;28;20437;-60
2022/07/16 11:22:26;;;;;;;3.20;2.50;;;21.90;1.00;;;;;;5073251;28;20421;-58
2022/07/16 11:25:02;;;;;;;2.53;2.33;;;21.80;1.00;;;;;;5073102;28;20441;-58
2022/07/16 11:27:34;;;;;;;3.47;2.40;;;21.70;1.00;;;;;;5073179;28;20467;-58
2022/07/16 11:30:01;;;;;;;3.03;2.50;;;21.60;1.00;;;;;;5072699;28;20445;-58
2022/07/16 11:32:28;;;;;;;3.17;2.80;;;21.40;1.00;;;;;;5105496;28;20819;-59
2022/07/16 11:34:53;;;;;;;3.07;2.63;;;21.40;1.00;;;;;;5072492;28;21065;-58
2022/07/16 11:37:20;;;;;;;2.90;2.60;;;21.40;1.00;;;;;;5073003;28;20520;-58
2022/07/16 11:39:46;;;;;;;5.40;3.40;;;21.30;1.00;;;;;;5072750;28;20640;-58
2022/07/16 11:42:12;;;;;;;3.03;2.43;;;21.20;1.00;;;;;;5072404;28;20445;-57
2022/07/16 11:44:40;;;;;;;3.27;2.73;;;21.10;1.00;;;;;;5067240;28;20431;-58
2022/07/16 11:47:08;;;;;;;4.13;2.70;;;21.30;1.00;;;;;;5060652;28;20449;-59
2022/07/16 11:49:39;;;;;;;4.70;3.40;;;21.30;1.00;;;;;;5072934;28;20457;-57
2022/07/16 11:52:08;;;;;;;4.77;2.60;;;21.20;1.00;;;;;;5071983;28;20867;-59
2022/07/16 11:54:41;;;;;;;4.67;3.00;;;21.10;1.00;;;;;;5072496;28;20617;-58
2022/07/16 11:57:09;;;;;;;3.40;2.30;;;21.10;1.00;;;;;;5062756;28;20462;-59
2022/07/16 11:59:47;;;;;;;2.37;2.17;;;21.30;1.00;;;;;;5063261;28;20440;-58
2022/07/16 12:02:13;;;;;;;4.13;2.20;;;21.50;1.00;;;;;;5072115;28;20960;-59
2022/07/16 12:04:47;;;;;;;2.47;2.10;;;21.70;1.00;;;;;;5070953;28;20461;-58
2022/07/16 12:07:16;;;;;;;2.50;2.30;;;21.40;1.00;;;;;;5060925;28;20676;-59
2022/07/16 12:09:47;;;;;;;4.23;2.30;;;21.10;1.00;;;;;;5052228;28;20449;-59
2022/07/16 12:12:15;;;;;;;3.10;2.37;;;21.40;1.00;;;;;;5051851;28;20577;-59
2022/07/16 12:15:01;;;;;;;3.37;2.20;;;21.80;1.00;;;;;;5052019;28;20531;-59
2022/07/16 12:17:31;;;;;;;2.10;1.90;;;21.90;1.00;;;;;;5051328;28;20451;-58
2022/07/16 12:20:12;;;;;;;2.13;1.97;;;21.90;1.00;;;;;;5052157;28;20439;-59
2022/07/16 12:23:14;;;;;;;2.60;2.33;;;21.80;1.00;;;;;;5051897;28;20461;-58
2022/07/16 12:25:41;;;;;;;3.10;1.70;;;21.70;1.00;;;;;;5051809;28;20896;-58
2022/07/16 12:28:19;;;;;;;4.03;2.30;;;21.70;1.00;;;;;;5051637;28;20461;-58
2022/07/16 12:31:06;;;;;;;5.33;2.10;;;21.80;1.00;;;;;;5050672;28;20835;-58
2022/07/16 12:33:32;;;;;;;2.57;2.37;;;22.20;1.00;;;;;;5051198;28;20799;-58
2022/07/16 12:35:58;;;;;;;2.03;1.70;;;22.40;1.00;;;;;;5051399;28;20864;-58
2022/07/16 12:41:21;;;;;;;3.53;1.93;;;22.40;1.00;;;;;;5067381;28;20263;-59
2022/07/16 12:43:53;;;;;;;1.90;1.80;;;22.70;1.00;;;;;;5070672;28;20495;-58
2022/07/16 12:46:21;;;;;;;1.50;1.20;;;22.90;1.00;;;;;;5050464;28;20454;-59
2022/07/16 12:49:02;;;;;;;1.90;1.50;;;23.00;1.00;;;;;;5070816;28;22058;-59
2022/07/16 12:51:30;;;;;;;3.53;1.33;;;23.00;1.00;;;;;;5070999;28;20780;-56
2022/07/16 12:53:57;;;;;;;2.10;1.40;;;22.80;1.00;;;;;;5071049;28;20433;-59
2022/07/16 12:59:08;;;;;;;1.67;1.47;;;23.40;1.00;;;;;;5051607;28;20480;-59
2022/07/16 13:01:34;;;;;;;1.27;1.10;;;23.40;1.00;;;;;;5050418;28;20816;-58
2022/07/16 13:04:00;;;;;;;1.20;1.07;;;23.50;1.00;;;;;;5058288;28;20202;-59
2022/07/16 13:06:25;;;;;;;1.47;1.23;;;23.50;1.00;;;;;;5050453;28;20180;-57
2022/07/16 13:08:53;;;;;;;1.37;1.27;;;23.60;1.00;;;;;;5050361;28;20184;-58
2022/07/16 13:11:20;;;;;;;1.20;1.03;;;23.60;1.00;;;;;;5050845;28;20188;-59
2022/07/16 13:13:47;;;;;;;3.90;1.40;;;23.30;1.00;;;;;;5050513;28;20430;-59